Time;durP1;ratioP1;P1;durP2;ratioP2;P2;SDS_P1;SDS_P2;PMS_P1;PMS_P2;Temp;Humidity;BMP_temperature;BMP_pressure;BME280_temperature;BME280_humidity;BME280_pressure;Samples;Min_cycle;Max_cycle;Signal;HPM_P1;HPM_P2
2022/07/04 00:02:01;;;;;;;3.20;1.90;;;;;;;14.83;100.00;101108.78;5031677;28;20419;-84
2022/07/04 00:04:34;;;;;;;3.08;2.00;;;;;;;14.65;100.00;101086.59;5025605;28;20427;-86
2022/07/04 00:07:03;;;;;;;4.67;2.10;;;;;;;14.63;100.00;101108.00;5031144;28;20434;-86
2022/07/04 00:09:37;;;;;;;3.60;2.05;;;;;;;14.50;100.00;101100.47;5027947;28;20431;-86
2022/07/04 00:12:06;;;;;;;3.72;1.75;;;;;;;14.52;100.00;101103.75;5026482;28;20418;-87
2022/07/04 00:14:34;;;;;;;4.00;1.90;;;;;;;14.55;100.00;101097.66;5029710;28;20423;-84
2022/07/04 00:17:07;;;;;;;3.25;1.80;;;;;;;14.51;100.00;101094.69;5027849;28;20791;-84
2022/07/04 00:19:41;;;;;;;3.53;1.80;;;;;;;14.57;100.00;101096.28;5038323;28;20890;-86
2022/07/04 00:22:09;;;;;;;2.97;1.63;;;;;;;14.44;100.00;101103.31;5032219;28;20442;-86
2022/07/04 00:24:43;;;;;;;4.13;1.90;;;;;;;14.39;100.00;101100.63;5031609;28;20434;-86
2022/07/04 00:27:11;;;;;;;3.78;1.70;;;;;;;14.38;100.00;101103.69;5030490;28;20427;-88
2022/07/04 00:29:45;;;;;;;4.27;2.00;;;;;;;14.18;100.00;101058.22;5026194;28;20427;-86
2022/07/04 00:32:18;;;;;;;4.30;1.70;;;;;;;14.31;100.00;101098.56;5033511;28;20435;-86
2022/07/04 00:34:47;;;;;;;4.90;1.90;;;;;;;14.31;100.00;101101.28;5036403;28;20422;-85
2022/07/04 00:37:15;;;;;;;3.75;1.83;;;;;;;14.33;100.00;101101.81;5025955;28;20413;-86
2022/07/04 00:39:44;;;;;;;4.40;1.75;;;;;;;14.23;100.00;101097.28;5030688;28;20431;-85
2022/07/04 00:42:13;;;;;;;3.20;1.63;;;;;;;14.16;100.00;101090.56;5028485;28;20462;-84
2022/07/04 00:44:46;;;;;;;3.72;1.80;;;;;;;14.17;100.00;101095.72;5034918;28;20426;-87
2022/07/04 00:47:15;;;;;;;5.03;1.87;;;;;;;14.06;100.00;101094.25;5031417;28;20445;-87
2022/07/04 00:49:43;;;;;;;4.55;1.90;;;;;;;14.12;100.00;101088.38;5028363;28;20418;-86
2022/07/04 00:52:17;;;;;;;4.05;1.55;;;;;;;14.20;100.00;101089.66;5023077;28;20439;-87
2022/07/04 00:54:52;;;;;;;3.72;1.80;;;;;;;14.13;100.00;101081.00;5033138;28;20788;-87
2022/07/04 00:57:21;;;;;;;3.45;1.70;;;;;;;14.10;100.00;101081.59;5028357;28;20423;-86
2022/07/04 00:59:54;;;;;;;5.27;1.93;;;;;;;13.97;100.00;101085.03;5028854;28;20419;-86
2022/07/04 01:02:27;;;;;;;7.00;2.10;;;;;;;14.07;100.00;101077.53;5024506;28;20424;-86
2022/07/04 01:05:00;;;;;;;3.25;1.80;;;;;;;14.14;100.00;101092.75;5029296;28;20768;-86
2022/07/04 01:07:33;;;;;;;4.30;2.10;;;;;;;14.14;100.00;101093.59;5028599;28;20425;-87
2022/07/04 01:10:03;;;;;;;4.45;2.10;;;;;;;14.10;100.00;101089.81;5027655;28;20437;-85
2022/07/04 01:12:37;;;;;;;4.70;2.20;;;;;;;14.16;100.00;101091.34;5024702;28;20778;-88
2022/07/04 01:15:10;;;;;;;4.82;2.20;;;;;;;13.93;100.00;101080.16;5026111;28;20426;-88
2022/07/04 01:17:44;;;;;;;5.15;2.20;;;;;;;14.02;100.00;101098.66;5038396;28;20425;-88
2022/07/04 01:20:18;;;;;;;4.27;2.10;;;;;;;13.99;100.00;101100.06;5035091;28;20772;-89
2022/07/04 01:22:46;;;;;;;5.68;2.50;;;;;;;13.99;100.00;101102.81;5031255;28;20434;-85
2022/07/04 01:25:20;;;;;;;4.53;2.20;;;;;;;13.80;100.00;101083.59;5033098;28;20868;-86
2022/07/04 01:27:48;;;;;;;4.97;2.40;;;;;;;13.97;100.00;101096.00;5027071;28;20433;-88
2022/07/04 01:30:21;;;;;;;6.43;2.40;;;;;;;13.81;100.00;101074.31;5031014;28;20430;-89
2022/07/04 01:32:49;;;;;;;4.78;2.30;;;;;;;13.97;100.00;101098.72;5034533;28;20421;-87
2022/07/04 01:35:24;;;;;;;5.97;2.55;;;;;;;13.88;100.00;101098.53;5047648;28;20427;-87
2022/07/04 01:37:52;;;;;;;5.57;2.50;;;;;;;13.89;100.00;101098.28;5023947;28;20430;-88
2022/07/04 01:40:21;;;;;;;6.28;2.60;;;;;;;13.61;100.00;101089.81;5028514;28;20431;-87
2022/07/04 01:42:49;;;;;;;6.88;2.67;;;;;;;13.81;100.00;101095.34;5030145;28;20427;-87
2022/07/04 01:45:22;;;;;;;5.03;2.40;;;;;;;13.76;100.00;101102.50;5029927;28;20908;-87
2022/07/04 01:47:56;;;;;;;7.28;2.72;;;;;;;13.83;100.00;101102.16;5028721;28;20419;-88
2022/07/04 01:50:31;;;;;;;6.65;2.75;;;;;;;13.77;100.00;101101.41;5028782;28;20433;-88
2022/07/04 01:53:04;;;;;;;7.60;2.93;;;;;;;13.62;100.00;101107.06;5031567;28;20438;-89
2022/07/04 01:55:33;;;;;;;9.73;2.85;;;;;;;13.73;100.00;101114.03;5028656;28;20413;-89
2022/07/04 01:58:06;;;;;;;7.05;2.97;;;;;;;13.66;100.00;101112.75;5027904;28;20899;-88
2022/07/04 02:03:31;;;;;;;6.50;3.10;;;;;;;13.56;100.00;101117.22;5036714;28;20430;-88
2022/07/04 02:06:05;;;;;;;6.53;2.85;;;;;;;13.57;100.00;101112.56;5033744;28;20445;-88
2022/07/04 02:13:00;;;;;;;7.80;2.90;;;;;;;13.44;100.00;101097.66;5027969;28;20433;-87
2022/07/04 02:14:21;;;;;;;7.60;3.13;;;;;;;13.57;100.00;101112.56;5025378;28;20468;-89
2022/07/04 02:16:55;;;;;;;6.30;2.90;;;;;;;13.55;100.00;101120.25;5030572;28;20418;-90
2022/07/04 02:19:29;;;;;;;7.97;3.40;;;;;;;13.51;100.00;101122.75;5042408;28;20782;-91
2022/07/04 02:22:04;;;;;;;7.47;3.35;;;;;;;13.40;100.00;101118.50;5032754;28;20954;-89
2022/07/04 02:24:38;;;;;;;7.07;3.20;;;;;;;13.44;100.00;101112.16;5027808;28;20440;-90
2022/07/04 02:27:11;;;;;;;6.88;3.40;;;;;;;13.48;100.00;101122.50;5026386;28;20423;-89
2022/07/04 02:29:40;;;;;;;6.45;3.10;;;;;;;13.49;100.00;101121.41;5027614;28;20415;-90
2022/07/04 02:32:13;;;;;;;7.53;3.20;;;;;;;13.40;100.00;101129.41;5026390;28;20427;-88
2022/07/04 02:34:47;;;;;;;6.65;3.10;;;;;;;13.35;100.00;101132.16;5033150;28;20430;-88
2022/07/04 02:37:21;;;;;;;6.13;2.75;;;;;;;13.40;100.00;101130.22;5026106;28;20428;-88
2022/07/04 02:39:54;;;;;;;10.20;3.60;;;;;;;13.37;100.00;101127.28;5031180;28;20425;-87
2022/07/04 02:42:30;;;;;;;15.50;3.95;;;;;;;13.39;100.00;101122.31;5027110;28;20437;-88
2022/07/04 02:45:03;;;;;;;7.65;3.47;;;;;;;13.25;100.00;101120.22;5024604;28;20434;-84
2022/07/04 02:47:36;;;;;;;5.90;3.35;;;;;;;13.29;100.00;101123.19;5028866;28;20430;-86
2022/07/04 02:50:10;;;;;;;7.95;3.42;;;;;;;13.26;100.00;101131.97;5028815;28;20423;-87
2022/07/04 02:52:44;;;;;;;7.90;3.78;;;;;;;13.28;100.00;101135.22;5024814;28;20430;-87
2022/07/04 02:55:13;;;;;;;7.60;4.00;;;;;;;13.24;100.00;101132.28;5029312;28;20830;-86
2022/07/04 02:57:41;;;;;;;9.45;4.07;;;;;;;13.28;100.00;101137.97;5028774;28;20930;-87
2022/07/04 03:00:15;;;;;;;7.57;3.80;;;;;;;13.09;100.00;101100.41;5021706;28;20520;-87
2022/07/04 03:02:49;;;;;;;7.88;4.15;;;;;;;13.30;100.00;101133.03;5032947;28;20433;-88
2022/07/04 03:05:17;;;;;;;10.80;4.18;;;;;;;13.37;100.00;101139.00;5031513;28;20426;-87
2022/07/04 03:07:51;;;;;;;8.43;4.32;;;;;;;13.26;100.00;101132.78;5041032;28;20954;-87
2022/07/04 03:10:25;;;;;;;7.57;3.95;;;;;;;13.26;100.00;101140.19;5024383;28;20438;-87
2022/07/04 03:12:58;;;;;;;6.72;3.78;;;;;;;13.15;100.00;101133.97;5024224;28;20434;-84
2022/07/04 03:15:32;;;;;;;7.68;4.22;;;;;;;13.22;100.00;101133.66;5029206;28;20776;-86
2022/07/04 03:18:05;;;;;;;10.30;4.75;;;;;;;13.26;100.00;101146.44;5032311;28;20422;-86
2022/07/04 03:20:38;;;;;;;8.75;4.32;;;;;;;13.22;100.00;101145.38;5030546;28;20808;-86
2022/07/04 03:23:13;;;;;;;9.23;4.45;;;;;;;13.25;100.00;101150.28;5031107;28;20426;-84
2022/07/04 03:25:47;;;;;;;9.40;4.30;;;;;;;13.19;100.00;101132.31;5031666;28;20438;-88
2022/07/04 03:28:20;;;;;;;9.65;4.30;;;;;;;13.26;100.00;101162.84;5030772;28;20438;-86
2022/07/04 03:30:53;;;;;;;9.73;4.53;;;;;;;13.24;100.00;101148.66;5030299;28;20439;-85
2022/07/04 03:33:26;;;;;;;9.95;4.70;;;;;;;13.37;100.00;101160.88;5032353;28;20783;-87
2022/07/04 03:35:55;;;;;;;8.87;4.60;;;;;;;13.25;100.00;101161.22;5031071;28;20463;-88
2022/07/04 03:38:29;;;;;;;9.77;4.97;;;;;;;13.24;100.00;101175.16;5030708;28;20411;-87
2022/07/04 03:41:02;;;;;;;8.82;5.00;;;;;;;13.33;100.00;101169.91;5030237;28;20430;-85
2022/07/04 03:43:36;;;;;;;8.95;4.60;;;;;;;13.31;100.00;101180.31;5030553;28;20424;-87
2022/07/04 03:46:09;;;;;;;8.52;4.45;;;;;;;13.33;100.00;101178.94;5029845;28;20435;-89
2022/07/04 03:48:43;;;;;;;9.32;4.55;;;;;;;13.39;100.00;101172.31;5030614;28;20950;-88
2022/07/04 03:51:16;;;;;;;8.30;4.47;;;;;;;13.38;100.00;101175.34;5032441;28;20422;-87
2022/07/04 03:53:51;;;;;;;9.27;4.30;;;;;;;13.37;100.00;101160.88;5030727;28;20430;-88
2022/07/04 03:56:24;;;;;;;8.45;4.60;;;;;;;13.40;100.00;101181.38;5031735;28;20404;-88
2022/07/04 03:58:57;;;;;;;8.60;4.78;;;;;;;13.45;100.00;101192.25;5031236;28;20419;-88
2022/07/04 04:01:31;;;;;;;11.20;4.65;;;;;;;13.47;100.00;101186.50;5029662;28;20438;-87
2022/07/04 04:06:51;;;;;;;11.30;4.88;;;;;;;13.46;100.00;101182.94;5031832;28;20411;-89
2022/07/04 04:09:25;;;;;;;9.70;4.68;;;;;;;13.49;100.00;101193.31;5030813;28;20423;-89
2022/07/04 04:11:59;;;;;;;9.82;4.90;;;;;;;13.40;100.00;101181.38;5030895;28;20432;-88
2022/07/04 04:14:32;;;;;;;10.38;4.78;;;;;;;13.46;100.00;101207.53;5028426;28;20442;-88
2022/07/04 04:17:01;;;;;;;10.02;5.40;;;;;;;13.39;100.00;101196.94;5023675;28;20434;-88
2022/07/04 04:19:34;;;;;;;9.23;4.93;;;;;;;13.43;100.00;101210.84;5031440;28;20430;-88
2022/07/04 04:22:08;;;;;;;8.55;4.75;;;;;;;13.58;100.00;101193.50;5027871;28;20811;-88
2022/07/04 04:24:43;;;;;;;8.65;5.30;;;;;;;13.57;100.00;101195.41;5030323;28;20419;-87
2022/07/04 04:27:11;;;;;;;10.95;5.20;;;;;;;13.58;100.00;101202.50;5028581;28;20928;-89
2022/07/04 04:29:39;;;;;;;9.37;4.90;;;;;;;13.55;100.00;101202.28;5026603;28;20791;-88
2022/07/04 04:32:08;;;;;;;11.05;5.03;;;;;;;13.59;100.00;101198.69;5030898;28;20406;-90
2022/07/04 04:34:42;;;;;;;9.50;5.05;;;;;;;13.70;100.00;101204.06;5031422;28;20415;-89
2022/07/04 04:37:15;;;;;;;9.93;5.00;;;;;;;13.71;100.00;101208.41;5030731;28;20423;-88
2022/07/04 04:39:50;;;;;;;9.50;5.25;;;;;;;13.78;100.00;101209.72;5028814;28;20636;-89
2022/07/04 04:42:23;;;;;;;8.30;4.93;;;;;;;13.80;100.00;101208.63;5026625;28;20780;-89
2022/07/04 04:44:56;;;;;;;10.52;4.88;;;;;;;13.70;100.00;101196.69;5028720;28;20431;-90
2022/07/04 04:47:29;;;;;;;9.70;5.25;;;;;;;13.82;100.00;101220.09;5032023;28;20425;-88
2022/07/04 04:50:03;;;;;;;10.55;4.82;;;;;;;13.83;100.00;101216.25;5034485;28;20430;-89
2022/07/04 04:52:36;;;;;;;9.65;4.93;;;;;;;13.90;100.00;101224.94;5023166;28;20430;-87
2022/07/04 04:55:10;;;;;;;10.03;4.43;;;;;;;14.00;100.00;101235.75;5029036;28;20502;-88
2022/07/04 04:57:43;;;;;;;8.32;4.82;;;;;;;14.09;100.00;101227.75;5029295;28;20419;-91
2022/07/04 05:00:12;;;;;;;7.85;4.50;;;;;;;14.24;100.00;101227.59;5025173;28;20424;-90
2022/07/04 05:02:41;;;;;;;9.07;4.63;;;;;;;14.26;100.00;101236.31;5029259;28;20891;-87
2022/07/04 05:05:14;;;;;;;7.78;4.32;;;;;;;14.24;100.00;101233.06;5020501;28;20441;-87
2022/07/04 05:07:47;;;;;;;8.83;4.57;;;;;;;14.33;100.00;101235.97;5029482;28;20411;-88
2022/07/04 05:10:22;;;;;;;7.72;4.20;;;;;;;14.46;100.00;101237.19;5028590;28;20915;-89
2022/07/04 05:12:55;;;;;;;8.45;4.25;;;;;;;15.02;100.00;101229.38;5023472;28;20442;-88
2022/07/04 05:15:24;;;;;;;7.78;4.15;;;;;;;17.22;100.00;101228.25;5025176;28;20432;-89
2022/07/04 05:17:57;;;;;;;6.18;3.40;;;;;;;18.43;100.00;101216.28;5024696;28;20419;-90
2022/07/04 05:20:30;;;;;;;7.30;3.30;;;;;;;19.79;100.00;101225.56;5034757;28;20418;-91
2022/07/04 05:23:03;;;;;;;8.40;3.20;;;;;;;19.99;100.00;101202.78;5031025;28;20423;-89
2022/07/04 05:25:38;;;;;;;6.32;3.17;;;;;;;21.22;100.00;101221.38;5029891;28;20418;-87
2022/07/04 05:28:11;;;;;;;6.47;2.80;;;;;;;21.17;100.00;101211.34;5030923;28;20423;-87
2022/07/04 05:30:44;;;;;;;5.13;2.80;;;;;;;21.46;100.00;101214.31;5027132;28;20461;-86
2022/07/04 05:33:17;;;;;;;5.72;3.00;;;;;;;21.50;100.00;101202.22;5030023;28;20433;-92
2022/07/04 05:35:51;;;;;;;6.53;2.92;;;;;;;22.61;100.00;101189.59;5036073;28;20421;-90
2022/07/04 05:38:24;;;;;;;6.60;2.75;;;;;;;22.38;100.00;101190.13;5028236;28;20760;-89
2022/07/04 05:40:58;;;;;;;7.00;2.63;;;;;;;22.51;100.00;101190.91;5025579;28;20438;-89
2022/07/04 05:43:31;;;;;;;5.85;2.70;;;;;;;22.17;100.00;101213.19;5028509;28;20752;-88
2022/07/04 05:46:00;;;;;;;7.30;2.93;;;;;;;20.59;100.00;101213.88;5028717;28;20434;-91
2022/07/04 05:48:33;;;;;;;6.28;3.00;;;;;;;20.90;100.00;101213.50;5020786;28;20446;-88
2022/07/04 05:51:07;;;;;;;5.75;2.90;;;;;;;19.87;100.00;101217.28;5029633;28;20419;-90
2022/07/04 05:53:40;;;;;;;6.32;3.00;;;;;;;19.91;100.00;101214.66;5030325;28;20747;-91
2022/07/04 05:56:15;;;;;;;6.32;2.97;;;;;;;19.07;100.00;101222.41;5029849;28;20792;-89
2022/07/04 05:58:48;;;;;;;6.35;3.25;;;;;;;18.59;100.00;101222.19;5025943;28;20437;-89
2022/07/04 06:01:22;;;;;;;6.85;3.30;;;;;;;18.29;100.00;101215.63;5026018;28;20425;-90
2022/07/04 06:03:55;;;;;;;8.32;3.50;;;;;;;18.04;100.00;101215.19;5036173;28;20418;-90
2022/07/04 06:06:29;;;;;;;7.45;3.50;;;;;;;18.45;100.00;101219.56;5026644;28;20682;-87
2022/07/04 06:09:03;;;;;;;7.97;3.50;;;;;;;18.01;100.00;101232.38;5027214;28;20442;-87
2022/07/04 06:11:38;;;;;;;7.60;3.67;;;;;;;18.14;100.00;101233.38;5028770;28;20414;-89
2022/07/04 06:14:11;;;;;;;6.60;3.07;;;;;;;17.86;100.00;101233.56;5027015;28;20438;-91
2022/07/04 06:16:44;;;;;;;6.78;2.90;;;;;;;17.85;100.00;101224.47;5030449;28;20773;-90
2022/07/04 06:19:18;;;;;;;5.78;2.60;;;;;;;17.92;100.00;101218.53;5018677;28;20424;-91
2022/07/04 06:21:51;;;;;;;5.57;2.70;;;;;;;17.71;100.00;101212.75;5027227;28;20429;-87
2022/07/04 06:24:24;;;;;;;6.80;3.03;;;;;;;17.52;100.00;101223.94;5030273;28;20411;-90
2022/07/04 06:26:59;;;;;;;6.53;2.70;;;;;;;17.88;100.00;101231.28;5024364;28;20456;-89
2022/07/04 06:29:32;;;;;;;5.88;2.78;;;;;;;17.84;100.00;101225.59;5024938;28;20427;-90
2022/07/04 06:32:05;;;;;;;6.32;2.38;;;;;;;18.06;100.00;101226.69;5028300;28;20438;-92
2022/07/04 06:37:35;;;;;;;6.40;2.70;;;;;;;17.68;100.00;101227.94;4952990;28;20858;-89
2022/07/04 06:40:10;;;;;;;6.63;2.65;;;;;;;17.86;100.00;101211.53;5027426;28;20430;-91
2022/07/04 06:42:39;;;;;;;4.57;2.28;;;;;;;18.18;100.00;101213.13;5028071;28;20423;-91
2022/07/04 06:45:12;;;;;;;5.85;2.80;;;;;;;17.60;100.00;101205.88;5028259;28;20776;-87
2022/07/04 06:47:46;;;;;;;6.65;3.08;;;;;;;17.57;100.00;101214.78;5014403;28;20440;-90
2022/07/04 06:50:20;;;;;;;5.95;2.65;;;;;;;17.63;100.00;101211.53;5028557;28;20787;-88
2022/07/04 06:52:53;;;;;;;6.80;2.60;;;;;;;17.48;100.00;101204.53;5028381;28;20415;-89
2022/07/04 06:55:22;;;;;;;4.63;2.33;;;;;;;17.63;100.00;101210.75;5025364;28;20422;-88
2022/07/04 06:57:56;;;;;;;4.90;2.40;;;;;;;17.70;100.00;101207.53;5024261;28;20489;-89
2022/07/04 07:00:30;;;;;;;5.18;2.13;;;;;;;18.14;100.00;101211.34;5016377;28;20430;-87
2022/07/04 07:03:04;;;;;;;2.92;1.48;;;;;;;17.85;100.00;101231.91;5023949;28;20911;-83
2022/07/04 07:05:32;;;;;;;3.20;1.70;;;;;;;17.40;100.00;101232.78;5002800;28;20780;-82
2022/07/04 07:08:05;;;;;;;3.47;1.30;;;;;;;17.46;100.00;101211.47;5004146;28;20434;-82
2022/07/04 07:10:39;;;;;;;4.60;1.30;;;;;;;17.79;100.00;101213.91;5005957;28;20848;-82
2022/07/04 07:13:14;;;;;;;2.85;1.00;;;;;;;17.80;100.00;101216.34;5011703;28;20461;-84
2022/07/04 07:15:42;;;;;;;4.13;1.25;;;;;;;18.27;100.00;101217.88;5005175;28;20439;-84
2022/07/04 07:18:10;;;;;;;2.85;1.13;;;;;;;18.45;100.00;101222.31;5004716;28;20431;-85
2022/07/04 07:20:43;;;;;;;2.38;1.10;;;;;;;18.29;100.00;101210.09;5011045;28;20415;-85
2022/07/04 07:23:12;;;;;;;2.95;1.00;;;;;;;17.95;100.00;101217.09;5011897;28;20443;-84
2022/07/04 07:25:41;;;;;;;3.45;1.27;;;;;;;17.57;100.00;101221.06;5004651;28;20445;-83
2022/07/04 07:28:16;;;;;;;2.08;1.00;;;;;;;17.47;100.00;101222.16;5015543;28;20919;-83
2022/07/04 07:30:44;;;;;;;2.30;0.90;;;;;;;17.61;100.00;101216.56;5005292;28;21275;-83
2022/07/04 07:33:17;;;;;;;3.40;1.13;;;;;;;17.92;100.00;101226.00;5004015;28;20439;-87
2022/07/04 07:35:46;;;;;;;11.10;6.93;;;;;;;18.02;100.00;101218.28;4996524;28;20722;-84
2022/07/04 07:38:19;;;;;;;2.63;1.00;;;;;;;17.85;100.00;101218.94;5000260;28;20799;-83
2022/07/04 07:40:52;;;;;;;5.10;1.20;;;;;;;17.63;100.00;101230.00;5000168;28;20435;-84
2022/07/04 07:43:27;;;;;;;3.58;1.20;;;;;;;17.76;100.00;101225.53;4998155;28;20439;-84
2022/07/04 07:45:56;;;;;;;3.42;1.10;;;;;;;17.95;100.00;101223.44;4999555;28;20419;-84
2022/07/04 07:48:29;;;;;;;4.43;1.00;;;;;;;17.98;100.00;101230.22;5003383;28;20434;-85
2022/07/04 07:51:02;;;;;;;3.40;0.85;;;;;;;18.27;100.00;101226.13;4992480;28;20427;-86
2022/07/04 07:53:36;;;;;;;3.42;0.85;;;;;;;18.48;100.00;101231.88;5003883;28;20963;-83
2022/07/04 07:56:09;;;;;;;2.92;0.93;;;;;;;18.50;100.00;101237.88;5009437;28;20451;-84
2022/07/04 07:58:43;;;;;;;1.90;1.00;;;;;;;18.42;100.00;101239.50;5009523;28;21070;-88
2022/07/04 08:01:17;;;;;;;1.58;0.77;;;;;;;18.09;100.00;101228.00;5008113;28;20434;-86
2022/07/04 08:06:41;;;;;;;2.90;0.80;;;;;;;17.61;100.00;101243.28;5007923;28;20431;-85
2022/07/04 08:09:15;;;;;;;1.77;0.80;;;;;;;17.75;100.00;101237.69;5008659;28;20435;-87
2022/07/04 08:11:48;;;;;;;2.43;0.90;;;;;;;18.07;100.00;101230.28;5010094;28;21190;-86
2022/07/04 08:14:18;;;;;;;2.55;1.00;;;;;;;18.32;100.00;101229.53;5006782;28;20434;-85
2022/07/04 08:16:51;;;;;;;2.45;0.90;;;;;;;18.69;100.00;101226.56;5002375;28;20436;-84
2022/07/04 08:19:25;;;;;;;3.90;1.00;;;;;;;18.91;100.00;101222.09;5001156;28;20426;-85
2022/07/04 08:21:54;;;;;;;3.22;0.90;;;;;;;18.79;100.00;101229.00;4999264;28;20928;-86
2022/07/04 08:24:27;;;;;;;2.42;0.80;;;;;;;18.58;100.00;101230.78;5000592;28;20427;-84
2022/07/04 08:26:55;;;;;;;3.88;0.95;;;;;;;18.52;100.00;101221.84;4992559;28;20446;-85
2022/07/04 08:29:27;;;;;;;1.63;0.82;;;;;;;18.94;100.00;101219.50;4992724;28;20430;-86
2022/07/04 08:32:00;;;;;;;2.58;0.95;;;;;;;19.25;100.00;101221.28;4994882;28;20434;-85
2022/07/04 08:34:29;;;;;;;2.80;0.80;;;;;;;19.43;100.00;101221.25;5001492;28;20415;-85
2022/07/04 08:37:02;;;;;;;2.72;0.85;;;;;;;19.77;100.00;101211.28;5005753;28;20426;-84
2022/07/04 08:39:35;;;;;;;1.75;0.70;;;;;;;19.42;100.00;101220.44;4994538;28;20434;-86
2022/07/04 08:42:13;;;;;;;2.10;0.73;;;;;;;19.04;100.00;101226.63;4996347;28;20423;-83
2022/07/04 08:44:47;;;;;;;3.72;0.93;;;;;;;18.58;100.00;101231.56;5026334;28;20439;-86
2022/07/04 08:47:23;;;;;;;1.70;0.90;;;;;;;18.21;100.00;101235.69;5028647;28;20427;-87
2022/07/04 08:50:10;;;;;;;3.08;1.00;;;;;;;17.96;100.00;101241.56;5038280;28;20431;-85
2022/07/04 08:52:48;;;;;;;2.63;1.03;;;;;;;17.71;100.00;101236.72;5022673;28;20439;-84
2022/07/04 08:58:29;;;;;;;2.00;0.90;;;;;;;18.55;100.00;101236.91;4955152;28;20432;-86
2022/07/04 09:01:05;;;;;;;2.95;0.82;;;;;;;18.83;100.00;101246.53;5028724;28;20427;-87
2022/07/04 09:03:34;;;;;;;2.63;0.80;;;;;;;19.08;100.00;101237.84;5025517;28;20431;-85
2022/07/04 09:06:07;;;;;;;3.42;1.00;;;;;;;19.22;100.00;101235.72;5025389;28;20450;-86
2022/07/04 09:08:41;;;;;;;2.63;0.93;;;;;;;19.30;100.00;101234.91;5027243;28;20423;-85
2022/07/04 09:11:14;;;;;;;1.87;0.80;;;;;;;19.63;100.00;101239.91;5028657;28;20427;-88
2022/07/04 09:13:43;;;;;;;3.20;1.00;;;;;;;19.71;100.00;101230.78;5025721;28;20430;-85
2022/07/04 09:16:17;;;;;;;2.05;0.88;;;;;;;19.41;100.00;101235.38;5023570;28;20434;-85
2022/07/04 09:18:54;;;;;;;1.60;0.80;;;;;;;19.13;100.00;101249.53;5028486;28;20434;-84
2022/07/04 09:21:45;;;;;;;2.00;0.90;;;;;;;18.75;100.00;101250.09;5026724;28;20902;-85
2022/07/04 09:24:44;;;;;;;2.30;0.93;;;;;;;19.06;100.00;101245.63;5025554;28;20454;-86
2022/07/04 09:27:12;;;;;;;2.83;0.90;;;;;;;19.46;100.00;101232.47;5023520;28;20528;-85
2022/07/04 09:29:52;;;;;;;1.20;0.70;;;;;;;19.62;100.00;101238.25;5025599;28;20481;-87
2022/07/04 09:32:34;;;;;;;2.15;0.98;;;;;;;19.00;100.00;101239.44;5024585;28;20424;-83
2022/07/04 09:35:10;;;;;;;1.60;0.80;;;;;;;18.96;100.00;101224.69;5026578;28;20425;-85
2022/07/04 09:37:45;;;;;;;4.53;0.82;;;;;;;19.42;100.00;101236.22;5027598;28;20784;-86
2022/07/04 09:40:25;;;;;;;3.25;0.90;;;;;;;19.20;100.00;101225.00;5027729;28;20423;-85
2022/07/04 09:43:00;;;;;;;2.08;0.90;;;;;;;19.77;100.00;101227.84;5027705;28;20422;-85
2022/07/04 09:45:29;;;;;;;2.30;0.90;;;;;;;20.10;100.00;101222.56;5026162;28;20431;-85
2022/07/04 09:48:04;;;;;;;1.50;0.90;;;;;;;20.16;100.00;101223.19;5026814;28;20479;-87
2022/07/04 09:50:33;;;;;;;2.80;0.70;;;;;;;19.96;99.74;101213.69;5030922;28;20410;-84
2022/07/04 09:53:06;;;;;;;2.92;0.75;;;;;;;19.44;99.95;101228.41;5025281;28;20437;-84
2022/07/04 09:55:40;;;;;;;2.15;0.90;;;;;;;19.19;100.00;101228.09;5030953;28;20411;-84
2022/07/04 09:58:15;;;;;;;2.25;0.90;;;;;;;19.48;100.00;101230.16;5025587;28;20426;-85
2022/07/04 10:00:49;;;;;;;2.97;0.90;;;;;;;19.28;100.00;101228.91;5026042;28;20439;-86
2022/07/04 10:03:20;;;;;;;1.38;0.70;;;;;;;19.03;100.00;101223.06;5028475;28;20441;-82
2022/07/04 10:06:03;;;;;;;1.45;0.80;;;;;;;19.06;100.00;101220.78;5028178;28;20423;-85
2022/07/04 10:08:37;;;;;;;1.38;0.70;;;;;;;19.47;100.00;101220.28;5024635;28;21226;-83
2022/07/04 10:11:12;;;;;;;2.50;0.80;;;;;;;20.01;100.00;101225.38;5023590;28;20431;-85
2022/07/04 10:13:45;;;;;;;1.15;0.75;;;;;;;20.34;92.42;101210.09;5018863;28;20520;-87
2022/07/04 10:16:19;;;;;;;2.70;0.82;;;;;;;20.85;95.11;101223.94;5020010;28;20431;-86
2022/07/04 10:18:55;;;;;;;1.35;0.75;;;;;;;20.95;93.96;101204.19;5025291;28;20445;-87
2022/07/04 10:21:24;;;;;;;1.20;0.70;;;;;;;21.29;90.29;101212.53;5020606;28;20433;-85
2022/07/04 10:23:58;;;;;;;2.90;0.80;;;;;;;21.24;97.33;101203.28;5016436;28;20451;-84
2022/07/04 10:26:29;;;;;;;1.40;0.80;;;;;;;21.53;93.21;101209.88;5032008;28;20442;-87
2022/07/04 10:29:02;;;;;;;1.05;0.57;;;;;;;21.44;81.00;101216.63;5025317;28;20436;-83
2022/07/04 10:31:35;;;;;;;1.50;0.82;;;;;;;21.39;82.37;101215.69;5023296;28;20431;-84
2022/07/04 10:34:10;;;;;;;1.50;0.70;;;;;;;21.10;95.45;101204.72;5028365;28;20438;-83
2022/07/04 10:36:52;;;;;;;3.33;0.80;;;;;;;20.97;86.63;101198.31;5029167;28;21113;-83
2022/07/04 10:39:26;;;;;;;2.35;0.70;;;;;;;21.38;88.86;101213.25;5020076;28;20936;-86
2022/07/04 10:41:59;;;;;;;1.88;0.65;;;;;;;21.68;91.61;101208.41;5029633;28;20515;-84
2022/07/04 10:44:37;;;;;;;2.28;0.90;;;;;;;21.80;93.16;101201.28;5023462;28;20429;-84
2022/07/04 10:47:24;;;;;;;1.15;0.70;;;;;;;21.87;82.56;101199.53;5022035;28;21135;-84
2022/07/04 10:49:58;;;;;;;2.92;0.93;;;;;;;21.39;88.63;101209.31;5001782;28;20430;-84
2022/07/04 10:52:31;;;;;;;1.98;0.68;;;;;;;21.12;85.07;101208.75;5022569;28;20458;-84
2022/07/04 10:55:12;;;;;;;1.30;0.70;;;;;;;21.56;92.95;101209.19;5005266;28;20435;-84
2022/07/04 10:57:45;;;;;;;3.40;0.77;;;;;;;21.91;88.19;101208.78;5003537;28;20462;-84
2022/07/04 11:00:14;;;;;;;2.10;0.90;;;;;;;21.89;92.19;101202.78;4999894;28;21908;-85
2022/07/04 11:02:47;;;;;;;1.80;0.80;;;;;;;21.31;100.00;101201.91;4991881;28;20435;-86
2022/07/04 11:05:32;;;;;;;0.82;0.65;;;;;;;20.76;92.98;101207.44;4991690;28;20438;-84
2022/07/04 11:08:06;;;;;;;2.70;0.80;;;;;;;20.44;92.20;101201.44;4994846;28;20438;-84
2022/07/04 11:10:39;;;;;;;0.77;0.60;;;;;;;20.95;88.80;101195.06;4997614;28;21053;-86
2022/07/04 11:13:20;;;;;;;1.20;0.70;;;;;;;20.64;84.99;101202.59;4996341;28;20900;-84
2022/07/04 11:16:07;;;;;;;1.40;0.80;;;;;;;20.79;87.00;101203.19;4989522;28;20439;-84
2022/07/04 11:18:42;;;;;;;2.38;0.80;;;;;;;20.51;89.07;101204.47;4996710;28;20438;-84
2022/07/04 11:21:20;;;;;;;1.70;0.70;;;;;;;20.77;100.00;101195.22;4993104;28;20445;-85
2022/07/04 11:23:53;;;;;;;1.83;0.80;;;;;;;21.09;100.00;101203.09;5000273;28;20442;-84
2022/07/04 11:26:26;;;;;;;1.98;0.63;;;;;;;20.95;91.32;101206.13;4995509;28;21932;-83
2022/07/04 11:29:00;;;;;;;1.70;0.60;;;;;;;20.63;88.22;101203.75;4992634;28;20795;-83
2022/07/04 11:31:40;;;;;;;0.60;0.60;;;;;;;20.20;100.00;101205.63;5003484;28;20442;-83
2022/07/04 11:34:14;;;;;;;1.58;0.70;;;;;;;20.18;100.00;101213.41;4998701;28;20942;-84
2022/07/04 11:36:51;;;;;;;2.03;0.80;;;;;;;20.30;100.00;101200.84;4995613;28;21484;-84
2022/07/04 11:39:20;;;;;;;2.20;0.70;;;;;;;20.36;98.43;101200.31;4994791;28;20876;-84
2022/07/04 11:45:03;;;;;;;4.70;0.70;;;;;;;20.52;100.00;101203.34;4992864;28;21006;-84
2022/07/04 11:47:34;;;;;;;0.75;0.60;;;;;;;20.51;100.00;101201.69;4991045;28;20438;-83
2022/07/04 11:50:10;;;;;;;2.17;0.70;;;;;;;20.40;100.00;101194.94;5000560;28;20430;-84
2022/07/04 11:52:47;;;;;;;1.45;0.70;;;;;;;19.95;100.00;101190.75;5004747;28;20442;-83
2022/07/04 11:55:17;;;;;;;1.77;0.88;;;;;;;20.69;100.00;101187.81;5002944;28;20419;-85
2022/07/04 11:57:52;;;;;;;1.45;0.63;;;;;;;20.74;98.09;101190.34;5000059;28;20443;-85
2022/07/04 12:00:29;;;;;;;2.00;0.70;;;;;;;21.24;98.08;101181.13;5002503;28;20443;-86
2022/07/04 12:03:03;;;;;;;2.03;0.70;;;;;;;21.62;99.80;101178.50;4990378;28;21442;-85
2022/07/04 12:05:37;;;;;;;2.38;0.60;;;;;;;21.90;92.09;101173.09;4993411;28;20750;-85